sensor_id;sensor_type;location;lat;lon;timestamp;pressure;altitude;pressure_sealevel;temperature;humidity
66524;BME280;53350;52.210;5.160;2024-02-21T00:02:04;102163.97;;;11.73;78.13
66524;BME280;53350;52.210;5.160;2024-02-21T00:04:31;102163.13;;;11.75;78.01
66524;BME280;53350;52.210;5.160;2024-02-21T00:06:57;102163.97;;;11.71;78.10
66524;BME280;53350;52.210;5.160;2024-02-21T00:09:25;102164.84;;;11.72;78.04
66524;BME280;53350;52.210;5.160;2024-02-21T00:11:51;102162.28;;;11.73;77.94
66524;BME280;53350;52.210;5.160;2024-02-21T00:14:18;102155.34;;;11.64;78.06
66524;BME280;53350;52.210;5.160;2024-02-21T00:16:45;102149.38;;;11.73;78.10
66524;BME280;53350;52.210;5.160;2024-02-21T00:19:11;102155.38;;;11.75;78.05
66524;BME280;53350;52.210;5.160;2024-02-21T00:21:39;102144.22;;;11.78;78.18
66524;BME280;53350;52.210;5.160;2024-02-21T00:24:06;102145.94;;;11.79;78.03
66524;BME280;53350;52.210;5.160;2024-02-21T00:26:34;102153.69;;;11.79;77.96
66524;BME280;53350;52.210;5.160;2024-02-21T00:29:00;102137.31;;;11.80;78.03
66524;BME280;53350;52.210;5.160;2024-02-21T00:31:27;102151.13;;;11.80;78.09
66524;BME280;53350;52.210;5.160;2024-02-21T00:33:53;102160.56;;;11.83;77.91
66524;BME280;53350;52.210;5.160;2024-02-21T00:36:20;102161.44;;;11.83;77.99
66524;BME280;53350;52.210;5.160;2024-02-21T00:38:46;102163.16;;;11.84;77.97
66524;BME280;53350;52.210;5.160;2024-02-21T00:41:13;102161.47;;;11.87;78.11
66524;BME280;53350;52.210;5.160;2024-02-21T00:43:41;102151.13;;;11.88;77.81
66524;BME280;53350;52.210;5.160;2024-02-21T00:46:08;102138.22;;;11.88;78.08
66524;BME280;53350;52.210;5.160;2024-02-21T00:48:34;102136.50;;;11.89;78.06
66524;BME280;53350;52.210;5.160;2024-02-21T00:51:01;102128.75;;;11.86;77.79
66524;BME280;53350;52.210;5.160;2024-02-21T00:53:28;102134.78;;;11.91;78.06
66524;BME280;53350;52.210;5.160;2024-02-21T00:55:54;102140.81;;;11.91;78.21
66524;BME280;53350;52.210;5.160;2024-02-21T00:58:22;102150.25;;;11.84;78.36
66524;BME280;53350;52.210;5.160;2024-02-21T01:00:50;102157.13;;;11.86;78.39
66524;BME280;53350;52.210;5.160;2024-02-21T01:03:16;102147.66;;;11.84;78.38
66524;BME280;53350;52.210;5.160;2024-02-21T01:05:43;102139.06;;;11.87;78.37
66524;BME280;53350;52.210;5.160;2024-02-21T01:08:09;102137.38;;;11.91;78.16
66524;BME280;53350;52.210;5.160;2024-02-21T01:10:36;102135.66;;;11.90;78.22
66524;BME280;53350;52.210;5.160;2024-02-21T01:13:02;102129.63;;;11.91;78.17
66524;BME280;53350;52.210;5.160;2024-02-21T01:15:29;102129.63;;;11.92;78.02
66524;BME280;53350;52.210;5.160;2024-02-21T01:17:57;102128.75;;;11.92;77.88
66524;BME280;53350;52.210;5.160;2024-02-21T01:20:23;102121.88;;;11.92;78.04
66524;BME280;53350;52.210;5.160;2024-02-21T01:22:49;102112.41;;;11.90;78.19
66524;BME280;53350;52.210;5.160;2024-02-21T01:25:16;102114.13;;;11.88;78.14
66524;BME280;53350;52.210;5.160;2024-02-21T01:27:43;102107.25;;;11.87;78.11
66524;BME280;53350;52.210;5.160;2024-02-21T01:30:10;102105.50;;;11.82;78.54
66524;BME280;53350;52.210;5.160;2024-02-21T01:32:37;102097.75;;;11.78;78.81
66524;BME280;53350;52.210;5.160;2024-02-21T01:35:05;102094.28;;;11.77;78.43
66524;BME280;53350;52.210;5.160;2024-02-21T01:37:32;102096.84;;;11.73;78.84
66524;BME280;53350;52.210;5.160;2024-02-21T01:39:58;102086.53;;;11.74;78.75
66524;BME280;53350;52.210;5.160;2024-02-21T01:42:25;102077.94;;;11.72;78.94
66524;BME280;53350;52.210;5.160;2024-02-21T01:44:51;102071.03;;;11.73;78.82
66524;BME280;53350;52.210;5.160;2024-02-21T01:47:18;102062.44;;;11.72;78.83
66524;BME280;53350;52.210;5.160;2024-02-21T01:49:45;102083.94;;;11.70;79.11
66524;BME280;53350;52.210;5.160;2024-02-21T01:52:16;102058.13;;;11.63;79.17
66524;BME280;53350;52.210;5.160;2024-02-21T01:54:43;102071.03;;;11.71;78.96
66524;BME280;53350;52.210;5.160;2024-02-21T01:57:10;102067.63;;;11.74;79.13
66524;BME280;53350;52.210;5.160;2024-02-21T01:59:37;102083.09;;;11.78;78.93
66524;BME280;53350;52.210;5.160;2024-02-21T02:02:04;102065.91;;;11.80;78.97
66524;BME280;53350;52.210;5.160;2024-02-21T02:04:31;102065.91;;;11.79;78.87
66524;BME280;53350;52.210;5.160;2024-02-21T02:07:00;102057.28;;;11.78;79.15
66524;BME280;53350;52.210;5.160;2024-02-21T02:09:30;102062.47;;;11.83;78.85
66524;BME280;53350;52.210;5.160;2024-02-21T02:11:56;102045.28;;;11.90;78.41
66524;BME280;53350;52.210;5.160;2024-02-21T02:14:23;102052.16;;;11.86;78.48
66524;BME280;53350;52.210;5.160;2024-02-21T02:16:50;102044.38;;;11.83;78.63
66524;BME280;53350;52.210;5.160;2024-02-21T02:19:16;102046.13;;;11.87;78.56
66524;BME280;53350;52.210;5.160;2024-02-21T02:21:46;102048.72;;;11.84;78.88
66524;BME280;53350;52.210;5.160;2024-02-21T02:24:15;102046.13;;;11.82;79.00
66524;BME280;53350;52.210;5.160;2024-02-21T02:26:42;102038.38;;;11.81;78.99
66524;BME280;53350;52.210;5.160;2024-02-21T02:29:08;102040.97;;;11.79;78.96
66524;BME280;53350;52.210;5.160;2024-02-21T02:31:34;102042.69;;;11.83;78.92
66524;BME280;53350;52.210;5.160;2024-02-21T02:34:02;102040.09;;;11.80;79.29
66524;BME280;53350;52.210;5.160;2024-02-21T02:36:29;102027.19;;;11.85;78.74
66524;BME280;53350;52.210;5.160;2024-02-21T02:38:55;102039.22;;;11.83;78.98
66524;BME280;53350;52.210;5.160;2024-02-21T02:41:23;102029.78;;;11.85;78.98
66524;BME280;53350;52.210;5.160;2024-02-21T02:43:50;102029.78;;;11.79;79.39
66524;BME280;53350;52.210;5.160;2024-02-21T02:46:16;102034.06;;;11.81;79.04
66524;BME280;53350;52.210;5.160;2024-02-21T02:48:42;102032.38;;;11.80;79.13
66524;BME280;53350;52.210;5.160;2024-02-21T02:51:10;102017.72;;;11.78;79.09
66524;BME280;53350;52.210;5.160;2024-02-21T02:53:36;102026.31;;;11.81;79.35
66524;BME280;53350;52.210;5.160;2024-02-21T02:56:03;102022.88;;;11.82;79.22
66524;BME280;53350;52.210;5.160;2024-02-21T02:58:31;102019.47;;;11.83;79.32
66524;BME280;53350;52.210;5.160;2024-02-21T03:00:58;102016.03;;;11.86;79.48
66524;BME280;53350;52.210;5.160;2024-02-21T03:03:24;102014.28;;;11.87;79.27
66524;BME280;53350;52.210;5.160;2024-02-21T03:05:51;102003.97;;;11.93;78.73
66524;BME280;53350;52.210;5.160;2024-02-21T03:08:17;102003.97;;;11.88;78.77
66524;BME280;53350;52.210;5.160;2024-02-21T03:10:44;101998.81;;;11.88;78.85
66524;BME280;53350;52.210;5.160;2024-02-21T03:13:10;101998.81;;;11.88;78.94
66524;BME280;53350;52.210;5.160;2024-02-21T03:15:39;101986.75;;;11.87;78.91
66524;BME280;53350;52.210;5.160;2024-02-21T03:18:05;101991.91;;;11.86;78.95
66524;BME280;53350;52.210;5.160;2024-02-21T03:20:32;101973.84;;;11.84;78.74
66524;BME280;53350;52.210;5.160;2024-02-21T03:22:58;101972.13;;;11.86;78.46
66524;BME280;53350;52.210;5.160;2024-02-21T03:25:25;101964.38;;;11.83;78.83
66524;BME280;53350;52.210;5.160;2024-02-21T03:27:51;101963.50;;;11.84;78.98
66524;BME280;53350;52.210;5.160;2024-02-21T03:30:18;101958.34;;;11.81;78.95
66524;BME280;53350;52.210;5.160;2024-02-21T03:32:45;101952.34;;;11.82;78.66
66524;BME280;53350;52.210;5.160;2024-02-21T03:35:12;101954.03;;;11.80;78.96
66524;BME280;53350;52.210;5.160;2024-02-21T03:37:38;101938.56;;;11.80;78.99
66524;BME280;53350;52.210;5.160;2024-02-21T03:40:07;101936.84;;;11.80;79.05
66524;BME280;53350;52.210;5.160;2024-02-21T03:42:34;101937.69;;;11.81;79.05
66524;BME280;53350;52.210;5.160;2024-02-21T03:45:01;101940.28;;;11.84;79.07
66524;BME280;53350;52.210;5.160;2024-02-21T03:47:29;101940.28;;;11.84;79.15
66524;BME280;53350;52.210;5.160;2024-02-21T03:49:56;101947.16;;;11.87;78.96
66524;BME280;53350;52.210;5.160;2024-02-21T03:52:24;101944.59;;;11.85;79.05
66524;BME280;53350;52.210;5.160;2024-02-21T03:54:51;101943.75;;;11.86;78.85
66524;BME280;53350;52.210;5.160;2024-02-21T03:57:17;101940.28;;;11.87;78.80
66524;BME280;53350;52.210;5.160;2024-02-21T03:59:44;101945.44;;;11.86;79.05
66524;BME280;53350;52.210;5.160;2024-02-21T04:02:10;101928.22;;;11.80;79.13
66524;BME280;53350;52.210;5.160;2024-02-21T04:04:37;101929.09;;;11.79;79.36
66524;BME280;53350;52.210;5.160;2024-02-21T04:07:05;101935.97;;;11.80;78.98
66524;BME280;53350;52.210;5.160;2024-02-21T04:09:32;101929.97;;;11.79;79.20
66524;BME280;53350;52.210;5.160;2024-02-21T04:12:00;101930.81;;;11.84;79.08
66524;BME280;53350;52.210;5.160;2024-02-21T04:14:26;101919.63;;;11.84;79.14
66524;BME280;53350;52.210;5.160;2024-02-21T04:16:53;101914.47;;;11.86;79.21
66524;BME280;53350;52.210;5.160;2024-02-21T04:19:19;101911.91;;;11.76;79.25
66524;BME280;53350;52.210;5.160;2024-02-21T04:21:46;101922.22;;;11.72;79.08
66524;BME280;53350;52.210;5.160;2024-02-21T04:24:14;101918.75;;;11.71;79.25
66524;BME280;53350;52.210;5.160;2024-02-21T04:26:40;101909.28;;;11.69;79.26
66524;BME280;53350;52.210;5.160;2024-02-21T04:29:07;101911.88;;;11.64;79.23
66524;BME280;53350;52.210;5.160;2024-02-21T04:31:33;101915.31;;;11.61;79.35
66524;BME280;53350;52.210;5.160;2024-02-21T04:33:59;101910.19;;;11.63;79.02
66524;BME280;53350;52.210;5.160;2024-02-21T04:36:26;101914.44;;;11.64;79.08
66524;BME280;53350;52.210;5.160;2024-02-21T04:38:52;101919.63;;;11.61;79.25
66524;BME280;53350;52.210;5.160;2024-02-21T04:41:20;101907.56;;;11.49;79.59
66524;BME280;53350;52.210;5.160;2024-02-21T04:43:47;101902.41;;;11.58;79.09
66524;BME280;53350;52.210;5.160;2024-02-21T04:46:13;101898.97;;;11.56;79.10
66524;BME280;53350;52.210;5.160;2024-02-21T04:48:40;101898.13;;;11.59;78.88
66524;BME280;53350;52.210;5.160;2024-02-21T04:51:07;101898.97;;;11.59;78.82
66524;BME280;53350;52.210;5.160;2024-02-21T04:53:33;101895.53;;;11.56;79.19
66524;BME280;53350;52.210;5.160;2024-02-21T04:56:00;101893.81;;;11.61;78.57
66524;BME280;53350;52.210;5.160;2024-02-21T04:58:28;101886.06;;;11.55;79.04
66524;BME280;53350;52.210;5.160;2024-02-21T05:00:54;101885.19;;;11.45;79.06
66524;BME280;53350;52.210;5.160;2024-02-21T05:03:21;101890.34;;;11.48;78.91
66524;BME280;53350;52.210;5.160;2024-02-21T05:05:47;101892.94;;;11.49;78.97
66524;BME280;53350;52.210;5.160;2024-02-21T05:08:14;101892.09;;;11.46;79.01
66524;BME280;53350;52.210;5.160;2024-02-21T05:10:40;101886.94;;;11.51;78.71
66524;BME280;53350;52.210;5.160;2024-02-21T05:13:07;101877.47;;;11.45;79.14
66524;BME280;53350;52.210;5.160;2024-02-21T05:15:35;101875.72;;;11.44;79.24
66524;BME280;53350;52.210;5.160;2024-02-21T05:18:02;101868.88;;;11.44;78.91
66524;BME280;53350;52.210;5.160;2024-02-21T05:20:28;101868.00;;;11.42;79.11
66524;BME280;53350;52.210;5.160;2024-02-21T05:22:55;101866.28;;;11.43;79.08
66524;BME280;53350;52.210;5.160;2024-02-21T05:25:21;101860.25;;;11.45;79.13
66524;BME280;53350;52.210;5.160;2024-02-21T05:27:48;101855.09;;;11.42;79.05
66524;BME280;53350;52.210;5.160;2024-02-21T05:30:18;101856.81;;;11.45;78.83
66524;BME280;53350;52.210;5.160;2024-02-21T05:32:46;101849.06;;;11.23;79.85
66524;BME280;53350;52.210;5.160;2024-02-21T05:35:13;101832.72;;;11.35;79.74
66524;BME280;53350;52.210;5.160;2024-02-21T05:37:40;101831.88;;;11.38;79.37
66524;BME280;53350;52.210;5.160;2024-02-21T05:40:07;101816.41;;;11.31;79.42
66524;BME280;53350;52.210;5.160;2024-02-21T05:42:33;101821.56;;;11.36;79.34
66524;BME280;53350;52.210;5.160;2024-02-21T05:45:00;101818.13;;;11.37;79.48
66524;BME280;53350;52.210;5.160;2024-02-21T05:47:26;101815.56;;;11.37;79.55
66524;BME280;53350;52.210;5.160;2024-02-21T05:49:54;101810.41;;;11.34;79.68
66524;BME280;53350;52.210;5.160;2024-02-21T05:52:21;101802.63;;;11.31;79.51
66524;BME280;53350;52.210;5.160;2024-02-21T05:54:47;101802.63;;;11.31;79.46
66524;BME280;53350;52.210;5.160;2024-02-21T05:57:16;101807.78;;;11.29;79.72
66524;BME280;53350;52.210;5.160;2024-02-21T05:59:43;101798.34;;;11.30;79.68
66524;BME280;53350;52.210;5.160;2024-02-21T06:02:09;101804.38;;;11.29;79.81
66524;BME280;53350;52.210;5.160;2024-02-21T06:04:36;101801.78;;;11.29;79.90
66524;BME280;53350;52.210;5.160;2024-02-21T06:07:04;101800.06;;;11.29;79.84
66524;BME280;53350;52.210;5.160;2024-02-21T06:09:30;101796.63;;;11.30;79.87
66524;BME280;53350;52.210;5.160;2024-02-21T06:11:57;101793.19;;;11.31;79.89
66524;BME280;53350;52.210;5.160;2024-02-21T06:14:23;101789.72;;;11.31;80.06
66524;BME280;53350;52.210;5.160;2024-02-21T06:16:50;101789.75;;;11.33;80.00
66524;BME280;53350;52.210;5.160;2024-02-21T06:19:16;101798.34;;;11.38;79.88
66524;BME280;53350;52.210;5.160;2024-02-21T06:21:43;101778.56;;;11.38;79.71
66524;BME280;53350;52.210;5.160;2024-02-21T06:24:11;101793.19;;;11.38;79.58
66524;BME280;53350;52.210;5.160;2024-02-21T06:26:38;101796.63;;;11.35;79.90
66524;BME280;53350;52.210;5.160;2024-02-21T06:29:05;101797.50;;;11.36;79.82
66524;BME280;53350;52.210;5.160;2024-02-21T06:31:32;101801.78;;;11.35;79.60
66524;BME280;53350;52.210;5.160;2024-02-21T06:33:58;101806.94;;;11.35;79.76
66524;BME280;53350;52.210;5.160;2024-02-21T06:36:24;101803.50;;;11.35;79.90
66524;BME280;53350;52.210;5.160;2024-02-21T06:38:51;101797.50;;;11.34;79.82
66524;BME280;53350;52.210;5.160;2024-02-21T06:41:19;101797.50;;;11.36;79.83
66524;BME280;53350;52.210;5.160;2024-02-21T06:43:45;101794.91;;;11.36;79.60
66524;BME280;53350;52.210;5.160;2024-02-21T06:46:12;101793.19;;;11.31;79.78
66524;BME280;53350;52.210;5.160;2024-02-21T06:48:38;101793.19;;;11.31;79.69
66524;BME280;53350;52.210;5.160;2024-02-21T06:51:05;101789.75;;;11.19;80.23
66524;BME280;53350;52.210;5.160;2024-02-21T06:53:31;101782.00;;;11.22;80.05
66524;BME280;53350;52.210;5.160;2024-02-21T06:55:58;101776.00;;;11.27;79.70
66524;BME280;53350;52.210;5.160;2024-02-21T06:58:26;101776.00;;;11.27;79.78
66524;BME280;53350;52.210;5.160;2024-02-21T07:00:52;101773.41;;;11.26;79.59
66524;BME280;53350;52.210;5.160;2024-02-21T07:03:19;101769.09;;;11.26;79.57
66524;BME280;53350;52.210;5.160;2024-02-21T07:05:45;101772.56;;;11.28;79.74
66524;BME280;53350;52.210;5.160;2024-02-21T07:08:11;101765.69;;;11.30;79.47
66524;BME280;53350;52.210;5.160;2024-02-21T07:10:38;101760.50;;;11.30;79.58
66524;BME280;53350;52.210;5.160;2024-02-21T07:13:04;101760.50;;;11.30;79.35
66524;BME280;53350;52.210;5.160;2024-02-21T07:15:32;101763.09;;;11.27;79.39
66524;BME280;53350;52.210;5.160;2024-02-21T07:17:59;101753.63;;;11.31;79.31
66524;BME280;53350;52.210;5.160;2024-02-21T07:20:25;101760.53;;;11.27;79.61
66524;BME280;53350;52.210;5.160;2024-02-21T07:22:52;101755.38;;;11.18;79.99
66524;BME280;53350;52.210;5.160;2024-02-21T07:25:18;101751.06;;;11.19;79.81
66524;BME280;53350;52.210;5.160;2024-02-21T07:27:45;101750.22;;;11.17;79.65
66524;BME280;53350;52.210;5.160;2024-02-21T07:30:12;101751.94;;;11.13;80.03
66524;BME280;53350;52.210;5.160;2024-02-21T07:32:40;101746.78;;;11.08;80.35
66524;BME280;53350;52.210;5.160;2024-02-21T07:35:07;101743.31;;;11.00;80.23
66524;BME280;53350;52.210;5.160;2024-02-21T07:37:36;101733.88;;;11.10;79.86
66524;BME280;53350;52.210;5.160;2024-02-21T07:40:03;101721.84;;;11.12;80.07
66524;BME280;53350;52.210;5.160;2024-02-21T07:42:30;101717.53;;;11.08;80.23
66524;BME280;53350;52.210;5.160;2024-02-21T07:44:56;101714.97;;;11.09;80.10
66524;BME280;53350;52.210;5.160;2024-02-21T07:47:23;101714.97;;;11.11;80.42
66524;BME280;53350;52.210;5.160;2024-02-21T07:49:51;101703.78;;;11.09;80.14
66524;BME280;53350;52.210;5.160;2024-02-21T07:52:17;101699.50;;;11.11;80.23
66524;BME280;53350;52.210;5.160;2024-02-21T07:54:44;101708.09;;;11.10;80.61
66524;BME280;53350;52.210;5.160;2024-02-21T07:57:10;101697.78;;;11.13;80.33
66524;BME280;53350;52.210;5.160;2024-02-21T07:59:36;101702.94;;;11.13;80.21
66524;BME280;53350;52.210;5.160;2024-02-21T08:02:03;101708.97;;;11.04;80.08
66524;BME280;53350;52.210;5.160;2024-02-21T08:04:32;101696.06;;;11.12;79.92
66524;BME280;53350;52.210;5.160;2024-02-21T08:06:59;101695.19;;;11.19;79.90
66524;BME280;53350;52.210;5.160;2024-02-21T08:09:29;101698.63;;;11.24;79.88
66524;BME280;53350;52.210;5.160;2024-02-21T08:11:56;101696.91;;;11.25;80.18
66524;BME280;53350;52.210;5.160;2024-02-21T08:14:22;101694.31;;;11.31;79.47
66524;BME280;53350;52.210;5.160;2024-02-21T08:16:50;101696.03;;;11.26;79.59
66524;BME280;53350;52.210;5.160;2024-02-21T08:19:16;101696.91;;;11.34;79.04
66524;BME280;53350;52.210;5.160;2024-02-21T08:21:43;101690.84;;;11.38;78.98
66524;BME280;53350;52.210;5.160;2024-02-21T08:24:13;101687.41;;;11.41;78.88
66524;BME280;53350;52.210;5.160;2024-02-21T08:26:40;101683.13;;;11.38;79.34
66524;BME280;53350;52.210;5.160;2024-02-21T08:29:06;101671.94;;;11.39;78.88
66524;BME280;53350;52.210;5.160;2024-02-21T08:31:33;101665.06;;;11.35;78.88
66524;BME280;53350;52.210;5.160;2024-02-21T08:34:00;101663.38;;;11.36;79.02
66524;BME280;53350;52.210;5.160;2024-02-21T08:36:28;101662.53;;;11.23;79.42
66524;BME280;53350;52.210;5.160;2024-02-21T08:38:55;101654.78;;;11.26;79.25
66524;BME280;53350;52.210;5.160;2024-02-21T08:41:23;101647.91;;;11.26;79.46
66524;BME280;53350;52.210;5.160;2024-02-21T08:43:50;101642.72;;;11.28;79.46
66524;BME280;53350;52.210;5.160;2024-02-21T08:46:16;101636.72;;;11.30;79.04
66524;BME280;53350;52.210;5.160;2024-02-21T08:48:43;101636.75;;;11.23;79.67
66524;BME280;53350;52.210;5.160;2024-02-21T08:51:11;101629.88;;;11.19;79.62
66524;BME280;53350;52.210;5.160;2024-02-21T08:53:37;101646.19;;;11.18;79.83
66524;BME280;53350;52.210;5.160;2024-02-21T08:56:05;101635.03;;;11.19;80.31
66524;BME280;53350;52.210;5.160;2024-02-21T08:58:34;101633.31;;;11.25;79.39
66524;BME280;53350;52.210;5.160;2024-02-21T09:01:02;101635.00;;;11.26;79.76
66524;BME280;53350;52.210;5.160;2024-02-21T09:03:29;101631.53;;;11.32;79.41
66524;BME280;53350;52.210;5.160;2024-02-21T09:05:56;101625.50;;;11.41;79.45
66524;BME280;53350;52.210;5.160;2024-02-21T09:08:23;101627.22;;;11.42;79.23
66524;BME280;53350;52.210;5.160;2024-02-21T09:10:50;101623.78;;;11.35;79.36
66524;BME280;53350;52.210;5.160;2024-02-21T09:13:16;101616.06;;;11.41;78.99
66524;BME280;53350;52.210;5.160;2024-02-21T09:15:44;101614.31;;;11.43;79.07
66524;BME280;53350;52.210;5.160;2024-02-21T09:18:11;101609.16;;;11.43;78.75
66524;BME280;53350;52.210;5.160;2024-02-21T09:20:37;101601.44;;;11.43;78.57
66524;BME280;53350;52.210;5.160;2024-02-21T09:23:04;101597.13;;;11.41;78.58
66524;BME280;53350;52.210;5.160;2024-02-21T09:25:30;101596.31;;;11.33;78.73
66524;BME280;53350;52.210;5.160;2024-02-21T09:27:57;101589.44;;;11.30;78.82
66524;BME280;53350;52.210;5.160;2024-02-21T09:30:24;101580.03;;;11.09;79.03
66524;BME280;53350;52.210;5.160;2024-02-21T09:32:53;101576.53;;;11.24;78.79
66524;BME280;53350;52.210;5.160;2024-02-21T09:35:20;101572.25;;;11.27;78.63
66524;BME280;53350;52.210;5.160;2024-02-21T09:37:48;101561.03;;;11.35;78.29
66524;BME280;53350;52.210;5.160;2024-02-21T09:40:15;101548.13;;;11.38;78.35
66524;BME280;53350;52.210;5.160;2024-02-21T09:42:42;101561.88;;;11.43;78.20
66524;BME280;53350;52.210;5.160;2024-02-21T09:45:19;101553.25;;;11.42;78.21
66524;BME280;53350;52.210;5.160;2024-02-21T09:47:55;101536.94;;;11.43;78.22
66524;BME280;53350;52.210;5.160;2024-02-21T09:50:26;101530.03;;;11.44;77.92
66524;BME280;53350;52.210;5.160;2024-02-21T09:52:54;101519.72;;;11.50;77.73
66524;BME280;53350;52.210;5.160;2024-02-21T09:55:21;101508.50;;;11.53;77.72
66524;BME280;53350;52.210;5.160;2024-02-21T09:57:49;101498.16;;;11.54;77.32
66524;BME280;53350;52.210;5.160;2024-02-21T10:00:17;101499.94;;;11.47;77.54
66524;BME280;53350;52.210;5.160;2024-02-21T10:02:47;101494.78;;;11.49;77.37
66524;BME280;53350;52.210;5.160;2024-02-21T10:05:15;101486.19;;;11.42;77.39
66524;BME280;53350;52.210;5.160;2024-02-21T10:07:42;101474.97;;;11.49;77.50
66524;BME280;53350;52.210;5.160;2024-02-21T10:10:09;101471.59;;;11.43;77.36
66524;BME280;53350;52.210;5.160;2024-02-21T10:12:36;101477.59;;;11.45;77.16
66524;BME280;53350;52.210;5.160;2024-02-21T10:15:04;101470.69;;;11.50;76.82
66524;BME280;53350;52.210;5.160;2024-02-21T10:17:31;101467.19;;;11.54;77.04
66524;BME280;53350;52.210;5.160;2024-02-21T10:20:06;101472.31;;;11.63;76.78
66524;BME280;53350;52.210;5.160;2024-02-21T10:22:34;101457.56;;;11.84;77.34
66524;BME280;53350;52.210;5.160;2024-02-21T10:25:07;101449.75;;;11.89;76.28
66524;BME280;53350;52.210;5.160;2024-02-21T10:27:34;101446.31;;;11.90;75.78
66524;BME280;53350;52.210;5.160;2024-02-21T10:30:00;101444.63;;;11.86;75.63
66524;BME280;53350;52.210;5.160;2024-02-21T10:32:27;101435.16;;;11.84;75.35
66524;BME280;53350;52.210;5.160;2024-02-21T10:35:01;101424.91;;;11.75;75.26
66524;BME280;53350;52.210;5.160;2024-02-21T10:37:28;101418.78;;;11.89;75.29
66524;BME280;53350;52.210;5.160;2024-02-21T10:39:56;101405.03;;;11.87;75.40
66524;BME280;53350;52.210;5.160;2024-02-21T10:42:23;101403.25;;;11.98;74.98
66524;BME280;53350;52.210;5.160;2024-02-21T10:44:56;101395.59;;;11.84;75.13
66524;BME280;53350;52.210;5.160;2024-02-21T10:47:28;101396.44;;;11.88;74.86
66524;BME280;53350;52.210;5.160;2024-02-21T10:50:02;101374.84;;;12.01;74.33
66524;BME280;53350;52.210;5.160;2024-02-21T10:52:35;101373.94;;;12.04;74.23
66524;BME280;53350;52.210;5.160;2024-02-21T10:55:11;101351.53;;;12.06;74.30
66524;BME280;53350;52.210;5.160;2024-02-21T10:57:42;101330.84;;;12.10;74.32
66524;BME280;53350;52.210;5.160;2024-02-21T11:00:10;101317.84;;;12.20;73.59
66524;BME280;53350;52.210;5.160;2024-02-21T11:02:37;101354.84;;;12.18;73.75
66524;BME280;53350;52.210;5.160;2024-02-21T11:05:05;101393.56;;;12.20;73.90
66524;BME280;53350;52.210;5.160;2024-02-21T11:07:35;101393.66;;;12.09;74.01
66524;BME280;53350;52.210;5.160;2024-02-21T11:10:03;101393.69;;;12.06;73.79
66524;BME280;53350;52.210;5.160;2024-02-21T11:12:34;101392.91;;;11.99;74.00
66524;BME280;53350;52.210;5.160;2024-02-21T11:15:04;101403.28;;;11.89;74.69
66524;BME280;53350;52.210;5.160;2024-02-21T11:17:31;101390.41;;;11.87;74.74
66524;BME280;53350;52.210;5.160;2024-02-21T11:19:57;101385.22;;;11.90;74.84
66524;BME280;53350;52.210;5.160;2024-02-21T11:22:26;101387.78;;;11.96;74.34
66524;BME280;53350;52.210;5.160;2024-02-21T11:25:06;101383.53;;;11.88;74.83
66524;BME280;53350;52.210;5.160;2024-02-21T11:27:35;101367.16;;;11.95;74.41
66524;BME280;53350;52.210;5.160;2024-02-21T11:30:04;101363.78;;;11.83;74.91
66524;BME280;53350;52.210;5.160;2024-02-21T11:32:31;101361.16;;;11.87;74.24
66524;BME280;53350;52.210;5.160;2024-02-21T11:34:58;101350.78;;;11.91;74.29
66524;BME280;53350;52.210;5.160;2024-02-21T11:37:27;101315.53;;;11.95;74.11
66524;BME280;53350;52.210;5.160;2024-02-21T11:39:54;101312.94;;;11.90;74.23
66524;BME280;53350;52.210;5.160;2024-02-21T11:42:21;101316.38;;;11.94;73.63
66524;BME280;53350;52.210;5.160;2024-02-21T11:44:49;101300.00;;;11.92;73.55
66524;BME280;53350;52.210;5.160;2024-02-21T11:47:15;101306.91;;;11.94;73.94
66524;BME280;53350;52.210;5.160;2024-02-21T11:49:43;101307.78;;;11.95;73.85
66524;BME280;53350;52.210;5.160;2024-02-21T11:52:11;101260.59;;;11.79;73.82
66524;BME280;53350;52.210;5.160;2024-02-21T11:54:39;101257.88;;;11.90;73.78
66524;BME280;53350;52.210;5.160;2024-02-21T11:57:06;101252.75;;;11.87;74.19
66524;BME280;53350;52.210;5.160;2024-02-21T11:59:33;101230.31;;;11.96;74.08
66524;BME280;53350;52.210;5.160;2024-02-21T12:02:01;101231.13;;;11.98;73.35
66524;BME280;53350;52.210;5.160;2024-02-21T12:04:29;101212.91;;;12.12;73.14
66524;BME280;53350;52.210;5.160;2024-02-21T12:06:57;101208.41;;;12.24;73.01
66524;BME280;53350;52.210;5.160;2024-02-21T12:09:24;101195.47;;;12.28;72.52
66524;BME280;53350;52.210;5.160;2024-02-21T12:11:57;101200.47;;;12.39;73.15
66524;BME280;53350;52.210;5.160;2024-02-21T12:14:24;101190.97;;;12.43;72.69
66524;BME280;53350;52.210;5.160;2024-02-21T12:16:51;101183.13;;;12.49;72.50
66524;BME280;53350;52.210;5.160;2024-02-21T12:19:19;101185.72;;;12.47;72.72
66524;BME280;53350;52.210;5.160;2024-02-21T12:21:48;101182.28;;;12.45;72.92
66524;BME280;53350;52.210;5.160;2024-02-21T12:24:16;101177.09;;;12.50;72.25
66524;BME280;53350;52.210;5.160;2024-02-21T12:26:45;101170.19;;;12.49;72.68
66524;BME280;53350;52.210;5.160;2024-02-21T12:29:11;101146.94;;;12.49;72.72
66524;BME280;53350;52.210;5.160;2024-02-21T12:31:38;101147.75;;;12.51;72.67
66524;BME280;53350;52.210;5.160;2024-02-21T12:34:05;101141.84;;;12.44;72.81
66524;BME280;53350;52.210;5.160;2024-02-21T12:36:33;101138.38;;;12.45;73.20
66524;BME280;53350;52.210;5.160;2024-02-21T12:39:00;101123.75;;;12.46;72.93
66524;BME280;53350;52.210;5.160;2024-02-21T12:41:28;101115.06;;;12.51;73.13
66524;BME280;53350;52.210;5.160;2024-02-21T12:43:55;101118.41;;;12.57;72.58
66524;BME280;53350;52.210;5.160;2024-02-21T12:46:22;101091.72;;;12.56;72.26
66524;BME280;53350;52.210;5.160;2024-02-21T12:48:48;101092.66;;;12.50;71.96
66524;BME280;53350;52.210;5.160;2024-02-21T12:51:15;101081.44;;;12.53;71.84